Time;durP1;ratioP1;P1;durP2;ratioP2;P2;SDS_P1;SDS_P2;PMS_P1;PMS_P2;Temp;Humidity;BMP_temperature;BMP_pressure;BME280_temperature;BME280_humidity;BME280_pressure;Samples;Min_cycle;Max_cycle;Signal;HPM_P1;HPM_P2
2021/01/23 00:01:58;;;;;;;11.82;6.55;;;4.40;99.90;;;;;;4142376;28;20037;-84
2021/01/23 00:03:58;;;;;;;15.15;7.03;;;4.40;99.90;;;;;;4158721;28;20037;-84
2021/01/23 00:05:59;;;;;;;9.02;5.75;;;4.40;99.90;;;;;;4159557;28;20053;-84
2021/01/23 00:08:02;;;;;;;10.45;6.13;;;4.40;99.90;;;;;;4159388;28;20034;-84
2021/01/23 00:10:04;;;;;;;9.48;5.85;;;4.30;99.90;;;;;;4142720;28;20120;-84
2021/01/23 00:12:06;;;;;;;;;;;4.40;99.90;;;;;;4149570;28;20201;-84
2021/01/23 00:14:07;;;;;;;12.60;6.25;;;4.30;99.90;;;;;;4152561;28;19913;-84
2021/01/23 00:16:07;;;;;;;12.50;5.95;;;4.30;99.90;;;;;;4157597;28;20107;-84
2021/01/23 00:18:08;;;;;;;12.82;6.35;;;4.30;99.90;;;;;;4164441;28;20080;-84
2021/01/23 00:20:09;;;;;;;10.43;6.40;;;4.30;99.90;;;;;;4167722;28;20120;-84
2021/01/23 00:22:10;;;;;;;11.00;5.75;;;4.40;99.90;;;;;;4166968;28;20072;-84
2021/01/23 00:24:11;;;;;;;20.50;11.15;;;4.40;99.90;;;;;;4142978;28;20465;-84
2021/01/23 00:26:11;;;;;;;22.60;11.80;;;4.40;99.90;;;;;;4155262;28;20049;-84
2021/01/23 00:28:12;;;;;;;19.88;9.68;;;4.40;99.90;;;;;;4140757;28;20034;-84
2021/01/23 00:30:13;;;;;;;15.30;8.45;;;4.40;99.90;;;;;;4155941;28;20033;-84
2021/01/23 00:32:21;;;;;;;12.25;7.30;;;4.40;99.90;;;;;;4156841;28;20042;-84
2021/01/23 00:34:22;;;;;;;13.88;6.97;;;4.40;99.90;;;;;;4156935;28;20145;-84
2021/01/23 00:36:22;;;;;;;14.00;7.38;;;4.40;99.90;;;;;;4159170;28;20053;-84
2021/01/23 00:38:23;;;;;;;13.68;6.85;;;4.40;99.90;;;;;;4142195;28;20044;-84
2021/01/23 00:40:25;;;;;;;9.88;6.40;;;4.30;99.90;;;;;;4139573;28;20030;-84
2021/01/23 00:42:25;;;;;;;13.03;6.70;;;4.30;99.90;;;;;;4158676;28;20184;-84
2021/01/23 00:44:27;;;;;;;15.40;7.45;;;4.40;99.90;;;;;;4156825;28;20035;-84
2021/01/23 00:46:27;;;;;;;10.07;6.07;;;4.30;99.90;;;;;;4154644;28;20108;-84
2021/01/23 00:48:28;;;;;;;14.30;6.72;;;4.40;99.90;;;;;;4137673;28;20125;-84
2021/01/23 00:50:28;;;;;;;11.02;6.68;;;4.30;99.90;;;;;;4172849;28;20556;-84
2021/01/23 00:52:30;;;;;;;12.48;6.05;;;4.30;99.90;;;;;;4164476;28;20156;-84
2021/01/23 00:54:31;;;;;;;15.43;6.43;;;4.30;99.90;;;;;;4151181;28;21561;-84
2021/01/23 00:56:32;;;;;;;13.10;6.68;;;4.30;99.90;;;;;;4136616;28;20559;-84
2021/01/23 00:58:32;;;;;;;14.15;7.07;;;4.20;99.90;;;;;;4151030;28;20109;-84
2021/01/23 01:00:34;;;;;;;11.95;6.88;;;4.10;99.90;;;;;;4158880;28;20117;-84
2021/01/23 01:02:34;;;;;;;10.00;5.88;;;4.10;99.90;;;;;;4152600;28;20387;-84
2021/01/23 01:04:35;;;;;;;12.32;6.72;;;4.20;99.90;;;;;;4163969;28;20071;-84
2021/01/23 01:06:36;;;;;;;12.88;6.35;;;4.20;99.90;;;;;;4156680;28;20169;-84
2021/01/23 01:08:36;;;;;;;12.98;6.75;;;4.20;99.90;;;;;;4160717;28;20075;-84
2021/01/23 01:10:37;;;;;;;13.43;6.70;;;4.20;99.90;;;;;;4152937;28;20087;-84
2021/01/23 01:12:38;;;;;;;15.02;7.03;;;4.20;99.90;;;;;;4161693;28;20129;-84
2021/01/23 01:14:38;;;;;;;11.05;6.35;;;4.20;99.90;;;;;;4163074;28;20037;-83
2021/01/23 01:16:39;;;;;;;13.45;6.72;;;4.20;99.90;;;;;;4157826;28;20591;-84
2021/01/23 01:18:40;;;;;;;9.88;5.75;;;4.20;99.90;;;;;;4179929;28;20567;-84
2021/01/23 01:20:41;;;;;;;12.55;6.72;;;4.20;99.90;;;;;;4148114;28;20439;-84
2021/01/23 01:22:41;;;;;;;12.63;6.60;;;4.20;99.90;;;;;;4148284;28;20140;-84
2021/01/23 01:24:42;;;;;;;12.23;6.72;;;4.20;99.90;;;;;;4157724;28;20494;-83
2021/01/23 01:26:42;;;;;;;13.60;6.25;;;4.10;99.90;;;;;;4165578;28;20496;-84
2021/01/23 01:28:43;;;;;;;11.38;6.28;;;4.10;99.90;;;;;;4150556;28;20502;-84
2021/01/23 01:30:43;;;;;;;12.98;6.55;;;4.20;99.90;;;;;;4162503;28;20041;-84
2021/01/23 01:32:44;;;;;;;12.75;6.63;;;4.10;99.90;;;;;;4148656;28;20077;-84
2021/01/23 01:34:45;;;;;;;16.70;7.20;;;4.10;99.90;;;;;;4147875;28;20421;-84
2021/01/23 01:36:45;;;;;;;13.57;7.15;;;4.10;99.90;;;;;;4164790;28;20063;-84
2021/01/23 01:38:46;;;;;;;16.08;6.93;;;4.10;99.90;;;;;;4157801;28;20034;-84
2021/01/23 01:40:49;;;;;;;13.80;6.72;;;4.10;99.90;;;;;;4138943;28;20034;-84
2021/01/23 01:42:50;;;;;;;15.27;7.13;;;4.10;99.90;;;;;;4167747;28;20408;-84
2021/01/23 01:44:51;;;;;;;15.38;6.93;;;4.10;99.90;;;;;;4162376;28;20033;-84
2021/01/23 01:46:51;;;;;;;14.13;6.47;;;4.00;99.90;;;;;;4174623;28;20052;-84
2021/01/23 01:48:54;;;;;;;14.07;6.72;;;4.00;99.90;;;;;;4153329;28;20120;-84
2021/01/23 01:50:54;;;;;;;;;;;4.00;99.90;;;;;;4165622;28;20069;-84
2021/01/23 01:52:55;;;;;;;11.65;6.25;;;4.10;99.90;;;;;;4174899;28;19928;-84
2021/01/23 01:54:56;;;;;;;16.25;6.85;;;4.00;99.90;;;;;;4155363;28;20533;-84
2021/01/23 01:56:56;;;;;;;10.82;7.07;;;4.10;99.90;;;;;;4169570;28;20045;-84
2021/01/23 01:58:57;;;;;;;11.07;6.32;;;4.00;99.90;;;;;;4170387;28;20041;-84
2021/01/23 02:00:57;;;;;;;10.80;6.32;;;4.00;99.90;;;;;;4151574;28;20177;-84
2021/01/23 02:03:33;;;;;;;13.15;7.22;;;4.10;99.90;;;;;;4165828;28;20180;-84
2021/01/23 02:06:10;;;;;;;14.05;6.57;;;4.10;99.90;;;;;;4158225;28;20388;-84
2021/01/23 02:08:23;;;;;;;14.30;7.10;;;4.00;99.90;;;;;;4095367;28;20039;-84
2021/01/23 02:10:32;;;;;;;10.63;5.95;;;4.00;99.90;;;;;;4114189;28;20045;-84
2021/01/23 02:13:10;;;;;;;16.42;6.20;;;4.00;99.90;;;;;;4169049;28;20036;-84
2021/01/23 02:15:12;;;;;;;11.63;6.47;;;4.00;99.90;;;;;;4153055;28;20533;-84
2021/01/23 02:17:16;;;;;;;12.38;6.22;;;4.00;99.90;;;;;;4161280;28;20044;-84
2021/01/23 02:19:49;;;;;;;14.65;6.32;;;4.00;99.90;;;;;;4164235;28;20102;-84
2021/01/23 02:22:17;;;;;;;12.20;6.30;;;4.00;99.90;;;;;;4162988;28;20286;-84
2021/01/23 02:24:24;;;;;;;11.82;6.15;;;3.90;99.90;;;;;;4152809;28;20088;-84
2021/01/23 02:26:34;;;;;;;10.68;6.28;;;3.90;99.90;;;;;;4162448;28;20486;-84
2021/01/23 02:29:05;;;;;;;10.77;5.68;;;4.00;99.90;;;;;;4149760;28;20255;-84
2021/01/23 02:31:16;;;;;;;11.73;5.57;;;3.90;99.90;;;;;;4158135;28;20110;-84
2021/01/23 02:33:19;;;;;;;13.52;6.35;;;3.90;99.90;;;;;;4141148;28;20030;-83
2021/01/23 02:35:20;;;;;;;10.80;5.32;;;4.00;99.90;;;;;;4157758;28;20057;-84
2021/01/23 02:37:21;;;;;;;14.48;6.10;;;4.00;99.90;;;;;;4181164;28;20043;-84
2021/01/23 02:39:24;;;;;;;12.82;6.03;;;3.90;99.90;;;;;;4151651;28;20479;-84
2021/01/23 02:41:25;;;;;;;11.98;5.80;;;3.90;99.90;;;;;;4163160;28;20125;-84
2021/01/23 02:43:26;;;;;;;11.63;5.30;;;3.90;99.90;;;;;;4166556;28;20045;-84
2021/01/23 02:45:27;;;;;;;12.18;5.82;;;3.90;99.90;;;;;;4143308;28;20041;-84
2021/01/23 02:47:28;;;;;;;11.60;5.90;;;3.90;99.90;;;;;;4161302;28;20044;-84
2021/01/23 02:49:28;;;;;;;11.60;6.15;;;3.90;99.90;;;;;;4151033;28;20030;-84
2021/01/23 02:51:43;;;;;;;18.40;6.55;;;3.80;99.90;;;;;;4168984;28;20033;-84
2021/01/23 02:53:47;;;;;;;11.85;6.32;;;3.80;99.90;;;;;;4168802;28;20120;-84
2021/01/23 02:55:55;;;;;;;9.50;5.20;;;3.80;99.90;;;;;;4153398;28;20080;-84
2021/01/23 02:57:59;;;;;;;10.25;5.97;;;3.80;99.90;;;;;;4156772;28;20044;-84
2021/01/23 03:00:06;;;;;;;11.13;5.43;;;3.80;99.90;;;;;;4155607;28;20053;-84
2021/01/23 03:02:12;;;;;;;12.30;6.28;;;3.80;99.90;;;;;;4142902;28;20038;-84
2021/01/23 03:04:14;;;;;;;11.95;5.60;;;3.70;99.90;;;;;;4160048;28;20099;-84
2021/01/23 03:06:15;;;;;;;12.13;5.55;;;3.70;99.90;;;;;;4156429;28;20040;-84
2021/01/23 03:08:16;;;;;;;10.25;4.85;;;3.70;99.90;;;;;;4161534;28;20112;-84
2021/01/23 03:10:17;;;;;;;9.90;5.10;;;3.70;99.90;;;;;;4142828;28;20041;-84
2021/01/23 03:12:17;;;;;;;10.50;5.05;;;3.70;99.90;;;;;;4146721;28;20037;-84
2021/01/23 03:14:19;;;;;;;11.50;4.70;;;3.70;99.90;;;;;;4150381;28;20038;-84
2021/01/23 03:16:20;;;;;;;14.90;6.50;;;3.70;99.90;;;;;;4161257;28;20481;-84
2021/01/23 03:18:20;;;;;;;11.27;5.57;;;3.70;99.90;;;;;;4149104;28;20041;-84
2021/01/23 03:20:21;;;;;;;10.75;5.55;;;3.70;99.90;;;;;;4145761;28;20105;-84
2021/01/23 03:22:21;;;;;;;12.65;5.57;;;3.70;99.90;;;;;;4167845;28;20033;-84
2021/01/23 03:24:22;;;;;;;12.13;5.30;;;3.70;99.90;;;;;;4150961;28;20108;-84
2021/01/23 03:26:23;;;;;;;11.18;5.10;;;3.80;99.90;;;;;;4151290;28;20029;-84
2021/01/23 03:28:25;;;;;;;10.25;5.45;;;3.80;99.90;;;;;;4142363;28;20586;-84
2021/01/23 03:30:29;;;;;;;12.23;5.45;;;3.80;99.90;;;;;;4160106;28;20030;-84
2021/01/23 03:32:29;;;;;;;7.55;4.57;;;3.80;99.90;;;;;;4147722;28;20026;-84
2021/01/23 03:34:30;;;;;;;11.52;4.97;;;3.80;99.90;;;;;;4132820;28;20551;-84
2021/01/23 03:36:31;;;;;;;10.15;5.32;;;3.80;99.90;;;;;;4160720;28;20516;-84
2021/01/23 03:38:32;;;;;;;8.93;5.20;;;3.70;99.90;;;;;;4145679;28;20038;-84
2021/01/23 03:40:33;;;;;;;9.23;4.97;;;3.80;99.90;;;;;;4156550;28;20036;-84
2021/01/23 03:42:37;;;;;;;9.23;4.72;;;3.70;99.90;;;;;;4147150;28;20088;-84
2021/01/23 03:44:38;;;;;;;10.25;4.47;;;3.80;99.90;;;;;;4166255;28;20038;-84
2021/01/23 03:46:38;;;;;;;8.23;5.05;;;3.70;99.90;;;;;;4158296;28;20083;-84
2021/01/23 03:48:39;;;;;;;9.63;4.20;;;3.70;99.90;;;;;;4147688;28;20520;-84
2021/01/23 03:50:40;;;;;;;20.83;5.15;;;3.70;99.90;;;;;;4144416;28;20034;-84
2021/01/23 03:52:40;;;;;;;8.60;4.75;;;3.80;99.90;;;;;;4141313;28;20034;-84
2021/01/23 03:54:41;;;;;;;12.32;5.05;;;3.80;99.90;;;;;;4144290;28;20048;-84
2021/01/23 03:56:42;;;;;;;12.70;5.43;;;3.80;99.90;;;;;;4160207;28;20120;-84
2021/01/23 03:58:42;;;;;;;9.48;4.55;;;3.80;99.90;;;;;;4160659;28;20034;-84
2021/01/23 04:00:44;;;;;;;9.45;4.18;;;3.80;99.90;;;;;;4141435;28;20120;-84
2021/01/23 04:02:44;;;;;;;7.28;3.90;;;3.90;99.90;;;;;;4158629;28;20104;-84
2021/01/23 04:04:45;;;;;;;9.38;4.88;;;3.90;99.90;;;;;;4139413;28;20026;-83
2021/01/23 04:06:45;;;;;;;11.68;5.07;;;3.90;99.90;;;;;;4160754;28;20034;-84
2021/01/23 04:08:51;;;;;;;7.18;4.38;;;3.90;99.90;;;;;;4160863;28;20125;-84
2021/01/23 04:10:52;;;;;;;6.82;4.40;;;3.90;99.90;;;;;;4156140;28;20572;-83
2021/01/23 04:12:52;;;;;;;7.03;4.43;;;3.90;99.90;;;;;;4163648;28;20036;-83
2021/01/23 04:14:53;;;;;;;15.25;4.90;;;3.90;99.90;;;;;;4153409;28;20112;-84
2021/01/23 04:16:53;;;;;;;11.68;4.70;;;3.90;99.90;;;;;;4173684;28;20125;-84
2021/01/23 04:19:01;;;;;;;7.28;4.20;;;3.90;99.90;;;;;;4143933;28;20046;-84
2021/01/23 04:21:03;;;;;;;11.52;4.32;;;3.90;99.90;;;;;;4157413;28;20475;-84
2021/01/23 04:23:03;;;;;;;9.60;4.60;;;3.90;99.90;;;;;;4144383;28;20080;-84
2021/01/23 04:25:05;;;;;;;8.98;3.90;;;3.90;99.90;;;;;;4159945;28;20064;-85
2021/01/23 04:27:06;;;;;;;11.07;3.93;;;3.90;99.90;;;;;;4163602;28;20041;-84
2021/01/23 04:29:07;;;;;;;9.93;4.43;;;3.90;99.90;;;;;;4161652;28;20604;-84
2021/01/23 04:31:08;;;;;;;8.45;5.03;;;3.90;99.90;;;;;;4153777;28;20100;-84
2021/01/23 04:33:10;;;;;;;8.10;4.90;;;3.80;99.90;;;;;;4152587;28;20041;-84
2021/01/23 04:35:11;;;;;;;11.27;4.55;;;3.80;99.90;;;;;;4150184;28;20682;-84
2021/01/23 04:37:12;;;;;;;10.68;5.20;;;3.80;99.90;;;;;;4154753;28;20037;-84
2021/01/23 04:39:12;;;;;;;12.40;5.35;;;3.80;99.90;;;;;;4155001;28;20125;-84
2021/01/23 04:41:13;;;;;;;8.63;4.38;;;3.80;99.90;;;;;;4139199;28;20033;-84
2021/01/23 04:43:14;;;;;;;10.98;5.10;;;3.70;99.90;;;;;;4160464;28;20033;-84
2021/01/23 04:45:15;;;;;;;11.23;4.82;;;3.70;99.90;;;;;;4140467;28;20042;-84
2021/01/23 04:47:17;;;;;;;8.30;4.38;;;3.70;99.90;;;;;;4165216;28;20049;-83
2021/01/23 04:49:18;;;;;;;8.02;4.30;;;3.70;99.90;;;;;;4138648;28;20118;-83
2021/01/23 04:51:18;;;;;;;12.55;4.68;;;3.70;99.90;;;;;;4155357;28;20534;-83
2021/01/23 04:53:19;;;;;;;9.38;4.30;;;3.70;99.90;;;;;;4143717;28;20029;-83
2021/01/23 04:55:19;;;;;;;9.18;4.47;;;3.70;99.90;;;;;;4155242;28;20061;-84
2021/01/23 04:57:20;;;;;;;11.68;4.72;;;3.70;99.90;;;;;;4137027;28;20510;-83
2021/01/23 04:59:21;;;;;;;6.63;4.32;;;3.70;99.90;;;;;;4155285;28;20056;-83
2021/01/23 05:01:21;;;;;;;10.13;4.78;;;3.70;99.90;;;;;;4156959;28;20042;-84
2021/01/23 05:03:22;;;;;;;6.90;4.32;;;3.70;99.90;;;;;;4143360;28;20040;-84
2021/01/23 05:05:23;;;;;;;7.85;4.18;;;3.70;99.90;;;;;;4155793;28;20467;-83
2021/01/23 05:07:38;;;;;;;9.65;4.80;;;3.80;99.90;;;;;;4159060;28;20505;-83
2021/01/23 05:09:39;;;;;;;6.93;3.70;;;3.70;99.90;;;;;;4143611;28;20510;-83
2021/01/23 05:11:46;;;;;;;9.63;4.60;;;3.80;99.90;;;;;;4154761;28;20036;-83
2021/01/23 05:14:12;;;;;;;9.93;4.35;;;3.80;99.90;;;;;;4138709;28;20056;-84
2021/01/23 05:16:26;;;;;;;10.20;4.65;;;3.80;99.90;;;;;;4140340;28;20065;-84
2021/01/23 05:18:26;;;;;;;7.40;4.50;;;3.80;99.90;;;;;;4155763;28;20030;-83
2021/01/23 05:20:34;;;;;;;8.20;4.00;;;3.80;99.90;;;;;;4140393;28;20134;-83
2021/01/23 05:22:48;;;;;;;7.63;4.55;;;3.80;99.90;;;;;;4143448;28;20117;-84
2021/01/23 05:24:51;;;;;;;10.35;4.32;;;3.80;99.90;;;;;;4155200;28;20067;-84
2021/01/23 05:26:56;;;;;;;8.13;3.88;;;3.90;99.90;;;;;;4134498;28;20061;-84
2021/01/23 05:29:13;;;;;;;7.03;3.78;;;3.90;99.90;;;;;;4161149;28;20037;-83
2021/01/23 05:31:17;;;;;;;9.60;4.00;;;3.90;99.90;;;;;;4178395;28;20558;-83
2021/01/23 05:33:26;;;;;;;8.88;3.78;;;3.90;99.90;;;;;;4158698;28;20033;-83
2021/01/23 05:35:27;;;;;;;13.88;4.03;;;4.00;99.90;;;;;;4155957;28;20052;-83
2021/01/23 05:37:32;;;;;;;8.32;4.00;;;4.00;99.90;;;;;;4174769;28;20068;-83
2021/01/23 05:39:49;;;;;;;10.52;4.10;;;4.00;99.90;;;;;;4154131;28;20046;-83
2021/01/23 05:42:05;;;;;;;9.23;3.90;;;4.00;99.90;;;;;;4156301;28;20038;-83
2021/01/23 05:44:11;;;;;;;10.50;4.50;;;4.00;99.90;;;;;;4137730;28;20034;-83
2021/01/23 05:46:14;;;;;;;9.20;3.97;;;4.00;99.90;;;;;;4160865;28;20034;-83
2021/01/23 05:48:15;;;;;;;10.48;4.20;;;4.00;99.90;;;;;;4170030;28;20049;-83
2021/01/23 05:50:16;;;;;;;9.38;4.13;;;4.00;99.90;;;;;;4157436;28;20614;-83
2021/01/23 05:52:17;;;;;;;10.32;3.97;;;4.00;99.90;;;;;;4165741;28;20040;-84
2021/01/23 05:54:17;;;;;;;7.93;4.00;;;4.10;99.90;;;;;;4165011;28;20293;-84
2021/01/23 05:56:18;;;;;;;10.73;4.55;;;4.10;99.90;;;;;;4162215;28;20126;-83
2021/01/23 05:58:19;;;;;;;6.18;3.83;;;4.10;99.90;;;;;;4154993;28;20105;-83
2021/01/23 06:00:22;;;;;;;10.57;3.95;;;4.10;99.90;;;;;;4162872;28;20490;-83
2021/01/23 06:02:23;;;;;;;5.40;3.28;;;4.10;99.90;;;;;;4142650;28;20049;-84
2021/01/23 06:04:25;;;;;;;10.95;4.55;;;4.10;99.90;;;;;;4160811;28;20041;-84
2021/01/23 06:06:42;;;;;;;7.80;3.58;;;4.10;99.90;;;;;;4162293;28;20048;-83
2021/01/23 06:08:50;;;;;;;6.88;3.50;;;4.20;99.90;;;;;;4149426;28;20037;-83
2021/01/23 06:10:51;;;;;;;5.15;3.40;;;4.20;99.90;;;;;;4161596;28;20057;-83
2021/01/23 06:12:55;;;;;;;11.10;3.90;;;4.30;99.90;;;;;;4159386;28;20544;-83
2021/01/23 06:14:56;;;;;;;9.65;4.15;;;4.30;99.90;;;;;;4145079;28;20474;-83
2021/01/23 06:16:57;;;;;;;8.82;4.22;;;4.30;99.90;;;;;;4162142;28;20061;-83
2021/01/23 06:19:17;;;;;;;7.82;4.55;;;4.30;99.90;;;;;;4152568;28;20497;-83
2021/01/23 06:21:18;;;;;;;7.40;4.80;;;4.30;99.90;;;;;;4146650;28;20033;-83
2021/01/23 06:23:21;;;;;;;9.63;3.95;;;4.20;99.90;;;;;;4138335;28;20030;-83
2021/01/23 06:25:21;;;;;;;7.05;4.05;;;4.20;99.90;;;;;;4168181;28;20697;-84
2021/01/23 06:27:47;;;;;;;9.85;4.53;;;4.20;99.90;;;;;;4170862;28;20045;-84
2021/01/23 06:29:48;;;;;;;8.20;3.88;;;4.20;99.90;;;;;;4165795;28;20124;-83
2021/01/23 06:31:49;;;;;;;11.80;4.13;;;4.20;99.90;;;;;;4163408;28;20029;-83
2021/01/23 06:33:50;;;;;;;8.27;4.10;;;4.20;99.90;;;;;;4150692;28;20400;-83
2021/01/23 06:36:12;;;;;;;11.63;4.50;;;4.20;99.90;;;;;;4148920;28;20521;-83
2021/01/23 06:38:14;;;;;;;6.25;4.00;;;4.20;99.90;;;;;;4124763;28;20054;-83
2021/01/23 06:40:34;;;;;;;8.65;4.93;;;4.20;99.90;;;;;;4158097;28;20374;-83
2021/01/23 06:42:49;;;;;;;8.98;4.22;;;4.20;99.90;;;;;;4152016;28;20106;-83
2021/01/23 06:44:49;;;;;;;8.02;4.00;;;4.30;99.90;;;;;;4161998;28;20033;-83
2021/01/23 06:46:50;;;;;;;5.70;4.10;;;4.30;99.90;;;;;;4170833;28;20037;-83
2021/01/23 06:49:04;;;;;;;6.05;4.10;;;4.30;99.90;;;;;;4168589;28;20037;-83
2021/01/23 06:51:04;;;;;;;6.93;4.22;;;4.30;99.90;;;;;;4173006;28;20044;-83
2021/01/23 06:53:07;;;;;;;9.45;4.38;;;4.30;99.90;;;;;;4147575;28;20427;-83
2021/01/23 06:55:09;;;;;;;9.07;4.45;;;4.30;99.90;;;;;;4163334;28;20105;-83
2021/01/23 06:57:10;;;;;;;9.05;4.85;;;4.30;99.90;;;;;;4164190;28;20041;-83
2021/01/23 06:59:31;;;;;;;9.13;4.80;;;4.30;99.90;;;;;;4163592;28;20030;-83
2021/01/23 07:01:32;;;;;;;9.63;4.85;;;4.30;99.90;;;;;;4155691;28;20075;-83
2021/01/23 07:03:32;;;;;;;7.90;4.97;;;4.40;99.90;;;;;;4146707;28;20030;-84
2021/01/23 07:05:33;;;;;;;6.38;4.18;;;4.40;99.90;;;;;;4150081;28;20038;-84
2021/01/23 07:07:38;;;;;;;8.73;4.95;;;4.40;99.90;;;;;;4137916;28;20121;-83
2021/01/23 07:09:53;;;;;;;9.52;5.10;;;4.40;99.90;;;;;;4144786;28;20485;-83
2021/01/23 07:11:55;;;;;;;8.57;5.13;;;4.40;99.90;;;;;;4156694;28;20650;-83
2021/01/23 07:13:56;;;;;;;;;;;4.40;99.90;;;;;;4148235;28;20117;-83
2021/01/23 07:15:57;;;;;;;8.38;4.80;;;4.40;99.90;;;;;;4155570;28;20732;-83
2021/01/23 07:17:58;;;;;;;7.45;4.85;;;4.40;99.90;;;;;;4151991;28;20036;-83
2021/01/23 07:20:12;;;;;;;7.30;4.35;;;4.40;99.90;;;;;;4162905;28;20083;-83
2021/01/23 07:22:18;;;;;;;9.02;4.82;;;4.40;99.90;;;;;;4160414;28;20033;-83
2021/01/23 07:24:19;;;;;;;7.75;4.78;;;4.40;99.90;;;;;;4163071;28;20030;-83
2021/01/23 07:26:21;;;;;;;10.23;5.43;;;4.30;99.90;;;;;;4167986;28;20055;-83
2021/01/23 07:28:22;;;;;;;7.63;4.60;;;4.30;99.90;;;;;;4174552;28;20309;-83
2021/01/23 07:30:30;;;;;;;7.28;5.13;;;4.30;99.90;;;;;;4151816;28;20037;-83
2021/01/23 07:32:37;;;;;;;8.32;4.82;;;4.30;99.90;;;;;;4164136;28;20096;-83
2021/01/23 07:35:00;;;;;;;8.57;5.30;;;4.30;99.90;;;;;;4146777;28;20505;-83
2021/01/23 07:37:00;;;;;;;10.32;5.28;;;4.30;99.90;;;;;;4149082;28;20049;-84
2021/01/23 07:39:09;;;;;;;7.88;4.63;;;4.20;99.90;;;;;;4149275;28;20033;-84
2021/01/23 07:41:09;;;;;;;7.30;4.72;;;4.30;99.90;;;;;;4181775;28;20028;-84
2021/01/23 07:43:11;;;;;;;7.28;4.97;;;4.30;99.90;;;;;;4162568;28;20243;-84
2021/01/23 07:45:13;;;;;;;7.88;4.90;;;4.20;99.90;;;;;;4156007;28;20508;-84
2021/01/23 07:47:13;;;;;;;7.10;5.03;;;4.20;99.90;;;;;;4168883;28;20055;-83
2021/01/23 07:49:27;;;;;;;7.88;4.68;;;4.20;99.90;;;;;;4173099;28;20025;-83
2021/01/23 07:51:28;;;;;;;7.95;5.05;;;4.20;99.90;;;;;;4145275;28;20030;-83
2021/01/23 07:53:29;;;;;;;7.85;5.00;;;4.30;99.90;;;;;;4163326;28;20057;-83
2021/01/23 07:55:38;;;;;;;6.82;4.57;;;4.30;99.90;;;;;;4165356;28;20029;-83
2021/01/23 07:57:39;;;;;;;9.32;5.15;;;4.30;99.90;;;;;;4175152;28;20104;-84
2021/01/23 07:59:45;;;;;;;10.30;5.55;;;4.30;99.90;;;;;;4148959;28;20048;-84
2021/01/23 08:01:46;;;;;;;9.70;4.70;;;4.20;99.90;;;;;;4149708;28;20053;-84
2021/01/23 08:03:47;;;;;;;7.60;5.07;;;4.30;99.90;;;;;;4163430;28;20026;-84
2021/01/23 08:05:54;;;;;;;9.02;4.60;;;4.30;99.90;;;;;;4159284;28;20034;-84
2021/01/23 08:07:56;;;;;;;8.30;4.80;;;4.20;99.90;;;;;;4149002;28;20029;-84
2021/01/23 08:10:18;;;;;;;8.95;4.60;;;4.30;99.90;;;;;;4146740;28;20468;-84
2021/01/23 08:12:20;;;;;;;7.78;5.13;;;4.20;99.90;;;;;;4158491;28;20537;-84
2021/01/23 08:14:20;;;;;;;8.77;4.97;;;4.30;99.90;;;;;;4163088;28;20044;-84
2021/01/23 08:16:21;;;;;;;8.60;5.45;;;4.30;99.90;;;;;;4157447;28;20429;-84
2021/01/23 08:18:35;;;;;;;8.73;4.88;;;4.30;99.90;;;;;;4165114;28;20041;-84
2021/01/23 08:20:38;;;;;;;7.45;5.32;;;4.30;99.90;;;;;;4148951;28;20041;-84
2021/01/23 08:23:10;;;;;;;9.02;5.32;;;4.30;99.90;;;;;;4157768;28;20115;-84
2021/01/23 08:25:31;;;;;;;8.88;5.22;;;4.30;99.90;;;;;;4145734;28;20034;-83
2021/01/23 08:27:32;;;;;;;9.38;5.70;;;4.30;99.90;;;;;;4168188;28;20036;-83
2021/01/23 08:29:41;;;;;;;11.20;6.15;;;4.30;99.90;;;;;;4145231;28;20104;-83
2021/01/23 08:31:44;;;;;;;9.85;5.65;;;4.30;99.90;;;;;;4164565;28;20021;-83
2021/01/23 08:33:48;;;;;;;10.20;6.00;;;4.40;99.90;;;;;;4146934;28;20060;-84
2021/01/23 08:35:49;;;;;;;8.52;5.57;;;4.30;99.90;;;;;;4163940;28;20052;-84
2021/01/23 08:37:51;;;;;;;8.55;5.55;;;4.30;99.90;;;;;;4168097;28;20155;-84
2021/01/23 08:39:52;;;;;;;10.05;6.22;;;4.40;99.90;;;;;;4151977;28;20041;-83
2021/01/23 08:41:52;;;;;;;10.00;5.10;;;4.40;99.90;;;;;;4144717;28;20122;-81
2021/01/23 08:43:53;;;;;;;11.40;5.78;;;4.40;99.90;;;;;;4169292;28;20042;-81
2021/01/23 08:45:55;;;;;;;8.18;5.78;;;4.40;99.90;;;;;;4175108;28;20045;-81
2021/01/23 08:47:56;;;;;;;10.00;5.45;;;4.40;99.90;;;;;;4160985;28;20029;-85
2021/01/23 08:49:56;;;;;;;10.45;6.00;;;4.50;99.90;;;;;;4145633;28;20044;-81
2021/01/23 08:51:57;;;;;;;11.48;6.35;;;4.50;99.90;;;;;;4164418;28;20420;-81
2021/01/23 08:53:58;;;;;;;9.90;5.78;;;4.50;99.90;;;;;;4170576;28;20029;-81
2021/01/23 08:56:01;;;;;;;11.15;5.90;;;4.50;99.90;;;;;;4161159;28;20029;-81
2021/01/23 08:58:02;;;;;;;;;;;4.60;99.90;;;;;;4148860;28;20587;-81
2021/01/23 09:00:11;;;;;;;11.55;6.13;;;4.60;99.90;;;;;;4165147;28;19921;-81
2021/01/23 09:02:14;;;;;;;10.05;6.28;;;4.60;99.90;;;;;;4182513;28;20082;-82
2021/01/23 09:04:14;;;;;;;10.43;6.15;;;4.60;99.90;;;;;;4147915;28;20048;-82
2021/01/23 09:06:23;;;;;;;9.30;5.90;;;4.60;99.90;;;;;;4148024;28;20394;-82
2021/01/23 09:08:24;;;;;;;11.50;6.03;;;4.60;99.90;;;;;;4170308;28;20029;-82
2021/01/23 09:10:33;;;;;;;9.63;5.95;;;4.70;99.90;;;;;;4165544;28;20033;-82
2021/01/23 09:12:34;;;;;;;11.85;6.30;;;4.70;99.90;;;;;;4145138;28;20120;-82
2021/01/23 09:14:35;;;;;;;11.38;6.78;;;4.70;99.90;;;;;;4146669;28;20069;-82
2021/01/23 09:16:36;;;;;;;13.50;6.28;;;4.70;99.90;;;;;;4185273;28;20811;-81
2021/01/23 09:18:47;;;;;;;9.75;6.45;;;4.70;99.90;;;;;;4142859;28;20038;-82
2021/01/23 09:20:48;;;;;;;10.02;5.80;;;4.80;99.90;;;;;;4155919;28;20113;-82
2021/01/23 09:22:48;;;;;;;11.45;6.30;;;4.80;99.90;;;;;;4164788;28;20032;-82
2021/01/23 09:24:59;;;;;;;13.85;6.40;;;4.80;99.90;;;;;;4146263;28;20057;-82
2021/01/23 09:27:07;;;;;;;8.45;5.95;;;4.80;99.90;;;;;;4175031;28;20540;-81
2021/01/23 09:29:07;;;;;;;13.38;7.53;;;4.80;99.90;;;;;;4150860;28;20088;-82
2021/01/23 09:31:19;;;;;;;14.98;6.90;;;4.80;99.90;;;;;;4150710;28;20038;-82
2021/01/23 09:33:20;;;;;;;9.68;6.13;;;4.80;99.90;;;;;;4184123;28;20116;-82
2021/01/23 09:35:27;;;;;;;12.77;5.65;;;4.80;99.90;;;;;;4147163;28;20033;-82
2021/01/23 09:37:44;;;;;;;12.82;6.25;;;4.80;99.90;;;;;;4154657;28;20049;-82
2021/01/23 09:39:45;;;;;;;8.18;5.50;;;4.90;99.90;;;;;;4158296;28;20539;-82
2021/01/23 09:41:46;;;;;;;9.18;5.65;;;4.90;99.90;;;;;;4167169;28;20025;-82
2021/01/23 09:43:47;;;;;;;7.65;5.32;;;4.90;99.90;;;;;;4165966;28;20052;-82
2021/01/23 09:45:50;;;;;;;8.63;5.65;;;4.90;99.90;;;;;;4156109;28;20391;-82
2021/01/23 09:47:50;;;;;;;9.10;5.40;;;4.90;99.90;;;;;;4165449;28;20471;-82
2021/01/23 09:49:51;;;;;;;10.25;5.68;;;5.00;99.90;;;;;;4150282;28;20061;-82
2021/01/23 09:51:53;;;;;;;9.93;5.13;;;5.00;99.90;;;;;;4163880;28;20034;-82
2021/01/23 09:53:53;;;;;;;8.07;5.50;;;5.00;99.90;;;;;;4164223;28;20060;-82
2021/01/23 09:55:54;;;;;;;11.38;5.85;;;5.00;99.90;;;;;;4147487;28;20026;-82
2021/01/23 09:58:04;;;;;;;13.45;5.93;;;5.00;99.90;;;;;;4166423;28;20156;-81
2021/01/23 10:00:08;;;;;;;12.15;4.82;;;5.10;99.90;;;;;;4171710;28;20043;-82
2021/01/23 10:02:10;;;;;;;10.77;5.55;;;5.10;99.90;;;;;;4161735;28;20033;-82
2021/01/23 10:04:11;;;;;;;10.82;5.90;;;5.10;99.90;;;;;;4167042;28;20513;-82
2021/01/23 10:06:14;;;;;;;9.35;5.32;;;5.20;99.90;;;;;;4147812;28;20097;-82
2021/01/23 10:08:22;;;;;;;;;;;5.20;99.90;;;;;;4147648;28;20041;-82
2021/01/23 10:10:24;;;;;;;8.43;4.82;;;5.20;99.90;;;;;;4147057;28;20166;-82
2021/01/23 10:12:29;;;;;;;7.45;4.80;;;5.30;99.90;;;;;;4141310;28;20070;-82
2021/01/23 10:14:29;;;;;;;9.15;5.80;;;5.30;99.90;;;;;;4168758;28;20040;-82
2021/01/23 10:16:31;;;;;;;9.40;4.82;;;5.30;99.90;;;;;;4152716;28;20092;-82
2021/01/23 10:18:48;;;;;;;9.80;5.03;;;5.30;99.90;;;;;;4169467;28;20075;-82
2021/01/23 10:20:49;;;;;;;10.20;5.10;;;5.40;99.90;;;;;;4159875;28;20064;-82
2021/01/23 10:23:01;;;;;;;8.05;5.22;;;5.40;99.90;;;;;;4170012;28;20108;-82
2021/01/23 10:25:03;;;;;;;8.85;4.93;;;5.40;99.90;;;;;;4166940;28;20404;-82
2021/01/23 10:27:04;;;;;;;12.98;5.65;;;5.50;99.90;;;;;;4169392;28;20028;-82
2021/01/23 10:29:05;;;;;;;10.80;5.05;;;5.50;99.90;;;;;;4165062;28;20640;-83
2021/01/23 10:31:05;;;;;;;10.02;5.22;;;5.50;99.90;;;;;;4166826;28;20026;-82
2021/01/23 10:33:06;;;;;;;9.35;5.25;;;5.50;99.90;;;;;;4157027;28;20033;-82
2021/01/23 10:35:07;;;;;;;8.80;5.45;;;5.60;99.90;;;;;;4180498;28;20029;-82
2021/01/23 10:37:08;;;;;;;7.78;5.13;;;5.60;99.90;;;;;;4151639;28;20026;-82
2021/01/23 10:39:09;;;;;;;9.93;4.97;;;5.60;99.90;;;;;;4164605;28;20397;-82
2021/01/23 10:41:21;;;;;;;11.82;5.88;;;5.60;99.90;;;;;;4142703;28;20121;-82
2021/01/23 10:43:22;;;;;;;7.95;4.93;;;5.70;99.90;;;;;;4153475;28;20236;-82
2021/01/23 10:45:22;;;;;;;9.27;5.82;;;5.70;99.90;;;;;;4147873;28;20030;-82
2021/01/23 10:47:23;;;;;;;8.20;4.85;;;5.70;99.90;;;;;;4165646;28;20100;-82
2021/01/23 10:49:40;;;;;;;6.65;4.32;;;5.70;99.90;;;;;;4161989;28;20113;-82
2021/01/23 10:51:41;;;;;;;10.38;5.28;;;5.80;99.90;;;;;;4147045;28;20037;-82